Mansfield, Massachusetts
Current Conditions -  °F | °C
As of 5:53 PM on Thursday 20 Nov 2014 (Local Time) from KOWD Reporting Station
Clear Clear  
Wind Chill: 33°   Ceiling: Unl
Heat Index: 37°   Visibility: 10mi
Dew Point: 16°   Wind: 5mph
Humidity: 42%   Direction: 280°W
Pressure: 29.82"   Gusts: NA
Location:  42.03°N, 71.22°W
Report Text: KOWD 202253Z 28004KT 10SM CLR 03/M09 A2982 RMK AO2 SLP097 T00281089
Loading
Personal Weather Stations






























Interactive Weather Map New forecast layout! Learn more

10-Day Weather Forecast

Advertisements
Track Severe Weather on mobile